Time;durP1;ratioP1;P1;durP2;ratioP2;P2;SDS_P1;SDS_P2;PMS_P1;PMS_P2;Temp;Humidity;BMP_temperature;BMP_pressure;BME280_temperature;BME280_humidity;BME280_pressure;Samples;Min_cycle;Max_cycle;Signal;HPM_P1;HPM_P2
2021/06/18 00:00:26;;;;;;;9.23;4.15;;;;;;;18.69;68.87;99328.20;1693307;85;21542;-80
2021/06/18 00:02:55;;;;;;;8.60;3.90;;;;;;;18.67;68.57;99329.59;1705194;84;20988;-79
2021/06/18 00:05:21;;;;;;;7.20;4.03;;;;;;;18.63;68.34;99324.11;1693209;85;21009;-79
2021/06/18 00:07:49;;;;;;;8.50;3.77;;;;;;;18.60;68.22;99327.38;1705407;84;21063;-78
2021/06/18 00:10:19;;;;;;;8.93;3.90;;;;;;;18.59;68.71;99328.32;1691114;85;20977;-79
2021/06/18 00:12:46;;;;;;;8.60;3.40;;;;;;;18.62;68.67;99328.14;1705297;84;21035;-79
2021/06/18 00:15:13;;;;;;;6.47;3.22;;;;;;;18.65;68.93;99324.88;1693231;84;21033;-78
2021/06/18 00:17:40;;;;;;;9.20;3.50;;;;;;;18.68;68.09;99326.48;1705687;84;22308;-78
2021/06/18 00:20:09;;;;;;;9.53;3.67;;;;;;;18.72;68.83;99326.73;1693295;85;21025;-78
2021/06/18 00:22:37;;;;;;;9.50;3.12;;;;;;;18.78;69.53;99326.39;1705521;84;21036;-78
2021/06/18 00:25:05;;;;;;;9.00;3.15;;;;;;;18.83;68.47;99324.36;1690666;83;21083;-79
2021/06/18 00:27:32;;;;;;;7.20;3.58;;;;;;;18.87;68.86;99324.57;1680825;85;21053;-79
2021/06/18 00:29:58;;;;;;;6.58;3.55;;;;;;;18.93;69.22;99330.45;1670842;85;21083;-79
2021/06/18 00:32:25;;;;;;;6.03;3.33;;;;;;;18.94;68.46;99317.64;1671040;85;21328;-80
2021/06/18 00:34:51;;;;;;;9.05;3.02;;;;;;;18.98;68.24;99319.16;1674531;85;21086;-79
2021/06/18 00:37:18;;;;;;;9.18;3.42;;;;;;;19.02;68.96;99317.61;1678577;85;21107;-80
2021/06/18 00:39:44;;;;;;;8.03;3.17;;;;;;;19.05;69.61;99313.95;1673476;85;21583;-78
2021/06/18 00:42:11;;;;;;;7.42;3.60;;;;;;;19.06;68.97;99309.91;1670036;85;21036;-79
2021/06/18 00:44:38;;;;;;;9.65;3.52;;;;;;;19.08;67.76;99315.11;1672849;85;21169;-79
2021/06/18 00:47:08;;;;;;;7.25;3.37;;;;;;;19.05;69.22;99315.27;1670595;85;21572;-79
2021/06/18 00:49:35;;;;;;;7.83;3.90;;;;;;;19.06;69.07;99314.34;1662281;85;21043;-80
2021/06/18 00:52:02;;;;;;;15.13;3.98;;;;;;;19.08;68.49;99320.38;1670250;85;21044;-79
2021/06/18 00:54:29;;;;;;;9.03;3.85;;;;;;;19.09;67.57;99311.52;1680630;85;21048;-79
2021/06/18 00:56:59;;;;;;;6.72;3.62;;;;;;;19.08;68.83;99311.99;1674381;85;21630;-79
2021/06/18 00:59:27;;;;;;;6.42;3.33;;;;;;;19.08;67.93;99311.16;1677284;85;21122;-78
2021/06/18 01:01:54;;;;;;;8.60;3.80;;;;;;;19.04;70.45;99306.52;1669548;85;21106;-79
2021/06/18 01:04:25;;;;;;;9.65;4.25;;;;;;;19.02;70.18;99300.93;1667687;85;21043;-79
2021/06/18 01:07:08;;;;;;;8.60;3.58;;;;;;;19.02;69.17;99299.61;1672509;85;21037;-79
2021/06/18 01:09:49;;;;;;;6.33;3.90;;;;;;;19.00;70.19;99293.14;1614279;88;22510;-79
2021/06/18 01:12:21;;;;;;;8.25;3.40;;;;;;;18.99;70.05;99303.76;1669097;84;21636;-80
2021/06/18 01:15:08;;;;;;;5.83;3.42;;;;;;;19.00;69.77;99307.63;1678039;85;21094;-79
2021/06/18 01:18:00;;;;;;;8.05;3.33;;;;;;;19.02;70.21;99300.48;1673520;85;21093;-80
2021/06/18 01:21:05;;;;;;;5.67;3.33;;;;;;;19.02;71.66;99297.85;1675362;85;20971;-82
2021/06/18 01:24:10;;;;;;;5.83;3.37;;;;;;;19.01;70.84;99295.30;1676426;85;21085;-80
2021/06/18 01:27:11;;;;;;;5.30;3.22;;;;;;;18.97;69.73;99292.45;1661160;84;20972;-79
2021/06/18 01:30:05;;;;;;;7.55;3.42;;;;;;;18.94;73.40;99296.56;1683104;85;21033;-79
2021/06/18 01:32:55;;;;;;;6.83;3.63;;;;;;;18.94;71.17;99302.70;1705231;84;21063;-80
2021/06/18 01:35:23;;;;;;;10.05;4.70;;;;;;;18.97;70.08;99308.27;1681216;85;21067;-79
2021/06/18 01:37:57;;;;;;;7.37;3.52;;;;;;;18.88;71.79;99304.38;1688957;85;21093;-77
2021/06/18 01:40:27;;;;;;;5.92;3.42;;;;;;;18.91;71.71;99298.91;1705046;84;21048;-79
2021/06/18 01:42:55;;;;;;;6.78;3.35;;;;;;;18.90;71.49;99297.67;1691739;85;21596;-79
2021/06/18 01:45:26;;;;;;;6.05;3.75;;;;;;;18.92;72.06;99298.00;1705120;84;21539;-80
2021/06/18 01:47:56;;;;;;;9.58;3.65;;;;;;;18.93;70.89;99290.45;1704863;84;21063;-80
2021/06/18 01:50:25;;;;;;;9.85;4.60;;;;;;;18.93;71.24;99298.83;1693025;85;21010;-80
2021/06/18 01:52:57;;;;;;;8.08;3.80;;;;;;;18.91;71.22;99298.07;1704887;84;21004;-81
2021/06/18 01:55:25;;;;;;;8.33;4.20;;;;;;;18.91;70.43;99304.66;1692468;85;21567;-79
2021/06/18 01:57:56;;;;;;;8.23;3.90;;;;;;;18.83;70.75;99309.03;1687700;84;21028;-79
2021/06/18 02:00:24;;;;;;;5.50;3.65;;;;;;;18.76;72.11;99304.55;1693190;85;21013;-79
2021/06/18 02:02:51;;;;;;;8.75;4.15;;;;;;;18.74;73.23;99306.42;1675888;84;21322;-78
2021/06/18 02:05:19;;;;;;;6.45;3.95;;;;;;;18.68;71.92;99311.56;1692675;84;21013;-79
2021/06/18 02:07:48;;;;;;;6.83;3.83;;;;;;;18.67;72.03;99310.31;1705252;84;21008;-79
2021/06/18 02:10:16;;;;;;;9.20;3.70;;;;;;;18.63;70.73;99300.41;1693320;84;21056;-80
2021/06/18 02:12:47;;;;;;;6.87;3.70;;;;;;;18.67;71.82;99309.00;1677009;84;21011;-79
2021/06/18 02:15:17;;;;;;;8.38;3.90;;;;;;;18.67;72.80;99312.48;1692845;84;21051;-79
2021/06/18 02:17:45;;;;;;;7.97;3.87;;;;;;;18.69;71.58;99318.98;1704504;84;21396;-79
2021/06/18 02:20:14;;;;;;;8.88;3.58;;;;;;;18.71;71.05;99309.69;1678099;84;21067;-79
2021/06/18 02:22:42;;;;;;;12.53;3.85;;;;;;;18.69;70.66;99311.08;1705486;84;21630;-79
2021/06/18 02:25:12;;;;;;;8.28;3.83;;;;;;;18.70;70.13;99311.45;1704950;83;21019;-78
2021/06/18 02:27:40;;;;;;;5.40;3.55;;;;;;;18.69;71.22;99312.40;1697130;84;21060;-78
2021/06/18 02:30:09;;;;;;;8.53;3.50;;;;;;;18.69;72.18;99305.34;1671988;84;21067;-79
2021/06/18 02:32:38;;;;;;;6.22;3.27;;;;;;;18.72;72.24;99309.61;1653626;85;21952;-79
2021/06/18 02:35:06;;;;;;;7.25;3.33;;;;;;;18.74;72.17;99322.23;1674577;85;21082;-79
2021/06/18 02:37:34;;;;;;;12.88;3.75;;;;;;;18.75;73.49;99321.27;1674269;85;21014;-79
2021/06/18 02:40:01;;;;;;;12.70;3.47;;;;;;;18.80;73.12;99323.23;1676101;85;21035;-78
2021/06/18 02:42:27;;;;;;;12.30;3.70;;;;;;;18.84;74.87;99323.44;1672002;85;21005;-79
2021/06/18 02:44:54;;;;;;;9.33;3.60;;;;;;;18.85;75.31;99329.55;1677648;84;21009;-79
2021/06/18 02:48:00;;;;;;;7.50;3.90;;;;;;;18.85;75.25;99333.03;1672601;85;21065;-79
2021/06/18 02:50:59;;;;;;;9.88;4.03;;;;;;;18.91;75.04;99333.63;1669044;85;21000;-79
2021/06/18 02:53:45;;;;;;;7.67;4.20;;;;;;;18.94;73.81;99334.77;1669345;85;21126;-79
2021/06/18 02:56:29;;;;;;;6.35;4.22;;;;;;;18.92;74.39;99324.78;1675875;85;21039;-79
2021/06/18 02:59:34;;;;;;;10.30;4.28;;;;;;;18.84;73.87;99315.54;1678367;85;21644;-79
2021/06/18 03:02:04;;;;;;;7.55;4.35;;;;;;;18.79;73.36;99321.52;1680073;85;21567;-80
2021/06/18 03:04:34;;;;;;;8.55;4.62;;;;;;;18.68;74.93;99330.44;1671407;85;21392;-80
2021/06/18 03:07:07;;;;;;;10.28;4.50;;;;;;;18.64;74.40;99337.67;1651679;85;21007;-79
2021/06/18 03:09:50;;;;;;;8.80;4.25;;;;;;;18.59;77.08;99341.02;1675558;85;21551;-80
2021/06/18 03:12:21;;;;;;;11.85;3.85;;;;;;;18.56;75.85;99331.98;1667653;85;21079;-79
2021/06/18 03:14:50;;;;;;;8.53;4.00;;;;;;;18.53;74.22;99317.66;1666250;85;21033;-80
2021/06/18 03:17:18;;;;;;;7.62;3.87;;;;;;;18.55;73.91;99312.31;1670208;85;21541;-79
2021/06/18 03:19:50;;;;;;;10.63;3.42;;;;;;;18.54;74.43;99307.48;1647277;86;20984;-79
2021/06/18 03:22:18;;;;;;;9.90;4.15;;;;;;;18.56;74.60;99306.09;1668961;85;21017;-78
2021/06/18 03:24:49;;;;;;;15.08;4.12;;;;;;;18.55;75.62;99306.57;1652920;85;21446;-79
2021/06/18 03:27:21;;;;;;;11.83;4.42;;;;;;;18.60;75.92;99303.67;1668212;85;21064;-80
2021/06/18 03:29:52;;;;;;;10.80;4.40;;;;;;;18.65;75.45;99304.28;1678613;85;21078;-79
2021/06/18 03:32:20;;;;;;;11.90;4.55;;;;;;;18.71;75.26;99309.21;1671019;85;21360;-80
2021/06/18 03:34:48;;;;;;;9.25;4.40;;;;;;;18.78;74.79;99314.98;1675336;85;21106;-80
2021/06/18 03:37:17;;;;;;;8.63;4.17;;;;;;;18.86;75.45;99304.89;1676635;85;21036;-79
2021/06/18 03:39:44;;;;;;;20.95;5.08;;;;;;;18.96;74.68;99304.79;1674845;85;21044;-78
2021/06/18 03:42:11;;;;;;;17.77;4.47;;;;;;;19.05;74.69;99304.25;1670427;85;21048;-80
2021/06/18 03:44:39;;;;;;;9.58;4.33;;;;;;;19.11;74.44;99299.10;1676206;85;21017;-79
2021/06/18 03:47:07;;;;;;;11.40;4.62;;;;;;;19.19;74.32;99303.94;1670231;85;21569;-79
2021/06/18 03:49:35;;;;;;;12.75;4.53;;;;;;;19.26;75.77;99307.45;1676775;85;21634;-79
2021/06/18 03:52:02;;;;;;;11.05;4.60;;;;;;;19.30;75.98;99308.13;1651557;85;21031;-80
2021/06/18 03:54:32;;;;;;;14.58;4.67;;;;;;;19.33;73.90;99308.42;1678950;85;21525;-79
2021/06/18 03:56:58;;;;;;;13.05;4.53;;;;;;;19.39;74.26;99310.70;1673555;85;21071;-79
2021/06/18 03:59:27;;;;;;;12.25;4.25;;;;;;;19.42;73.24;99298.67;1677790;85;21109;-79
2021/06/18 04:01:56;;;;;;;15.63;4.83;;;;;;;19.45;73.46;99292.72;1674177;85;21723;-79
2021/06/18 04:04:25;;;;;;;11.22;4.97;;;;;;;19.53;74.07;99301.98;1654576;86;21017;-79
2021/06/18 04:06:52;;;;;;;8.80;4.97;;;;;;;19.59;74.49;99302.46;1660353;85;21392;-79
2021/06/18 04:09:19;;;;;;;12.28;5.03;;;;;;;19.62;74.15;99297.02;1678555;85;21092;-80
2021/06/18 04:11:46;;;;;;;19.42;5.00;;;;;;;19.68;73.15;99295.81;1665869;85;21109;-80
2021/06/18 04:14:14;;;;;;;8.88;4.50;;;;;;;19.74;72.88;99303.87;1680127;85;21117;-80
2021/06/18 04:16:41;;;;;;;8.60;4.47;;;;;;;19.83;73.14;99300.66;1668259;85;21110;-80
2021/06/18 04:19:09;;;;;;;10.55;5.08;;;;;;;19.94;73.78;99306.16;1672195;85;21071;-79
2021/06/18 04:21:44;;;;;;;11.45;4.47;;;;;;;20.05;73.22;99298.44;1669103;85;21116;-79
2021/06/18 04:24:13;;;;;;;9.85;4.72;;;;;;;20.16;73.35;99303.53;1678602;84;21144;-79
2021/06/18 04:26:41;;;;;;;10.93;4.70;;;;;;;20.23;73.09;99299.55;1669518;85;21098;-79
2021/06/18 04:29:08;;;;;;;10.58;5.05;;;;;;;20.29;72.67;99300.48;1672815;85;21078;-80
2021/06/18 04:31:36;;;;;;;14.10;4.78;;;;;;;20.36;72.29;99291.25;1668768;85;21665;-81
2021/06/18 04:34:07;;;;;;;13.83;4.97;;;;;;;20.40;72.08;99287.95;1679919;85;21525;-79
2021/06/18 04:36:36;;;;;;;13.15;6.28;;;;;;;20.40;71.73;99287.48;1666389;85;21012;-80
2021/06/18 04:39:06;;;;;;;15.80;6.78;;;;;;;20.48;71.38;99291.45;1678816;85;21036;-80
2021/06/18 04:41:34;;;;;;;14.05;6.30;;;;;;;20.41;70.87;99285.68;1671516;84;21047;-80
2021/06/18 04:44:01;;;;;;;13.28;6.10;;;;;;;20.49;70.46;99287.36;1679196;85;21011;-80
2021/06/18 04:46:28;;;;;;;12.03;5.97;;;;;;;20.49;70.46;99300.56;1680734;85;21087;-80
2021/06/18 04:48:55;;;;;;;22.70;7.72;;;;;;;20.52;70.26;99295.59;1675229;85;21031;-81
2021/06/18 04:51:22;;;;;;;14.47;6.17;;;;;;;20.60;70.10;99299.45;1676444;85;21048;-80
2021/06/18 04:53:54;;;;;;;15.15;6.12;;;;;;;20.66;69.84;99291.63;1678407;85;21025;-80
2021/06/18 04:56:21;;;;;;;12.73;6.58;;;;;;;20.73;69.73;99303.52;1671644;85;21102;-80
2021/06/18 04:58:48;;;;;;;18.42;6.83;;;;;;;20.80;69.14;99307.44;1673152;85;21033;-80
2021/06/18 05:01:14;;;;;;;15.23;6.40;;;;;;;20.77;69.13;99302.36;1669516;85;21653;-81
2021/06/18 05:03:41;;;;;;;13.40;6.60;;;;;;;20.81;68.76;99305.63;1673501;85;20980;-81
2021/06/18 05:06:07;;;;;;;13.00;6.20;;;;;;;20.84;68.62;99301.48;1681737;85;21069;-82
2021/06/18 05:08:34;;;;;;;19.40;5.90;;;;;;;20.88;68.55;99296.38;1682817;85;21037;-81
2021/06/18 05:11:00;;;;;;;29.42;6.22;;;;;;;20.93;68.35;99294.75;1682755;85;21057;-80
2021/06/18 05:13:27;;;;;;;14.58;5.58;;;;;;;20.92;68.36;99309.77;1677349;85;21549;-82
2021/06/18 05:15:53;;;;;;;22.35;6.37;;;;;;;21.12;68.01;99304.98;1671157;85;21055;-81
2021/06/18 05:18:21;;;;;;;20.12;6.45;;;;;;;21.29;67.98;99313.99;1674964;85;21001;-80
2021/06/18 05:20:48;;;;;;;19.55;6.80;;;;;;;21.47;67.68;99307.12;1674669;85;21054;-83
2021/06/18 05:23:14;;;;;;;14.07;6.90;;;;;;;21.62;66.90;99308.26;1672288;85;21575;-82
2021/06/18 05:25:40;;;;;;;13.53;6.20;;;;;;;21.65;64.66;99316.00;1664245;85;21108;-83
2021/06/18 05:28:07;;;;;;;12.45;7.25;;;;;;;21.79;64.26;99316.39;1677083;83;21116;-81
2021/06/18 05:30:33;;;;;;;17.15;7.00;;;;;;;21.90;64.91;99319.62;1707223;84;21000;-82
2021/06/18 05:33:00;;;;;;;15.13;7.25;;;;;;;21.89;64.49;99310.00;1707320;84;21052;-83
2021/06/18 05:35:27;;;;;;;19.80;7.42;;;;;;;21.93;64.46;99308.84;1694947;85;20977;-82
2021/06/18 05:37:54;;;;;;;20.48;10.35;;;;;;;21.90;64.42;99312.16;1692160;85;20989;-81
2021/06/18 05:40:20;;;;;;;15.45;8.10;;;;;;;21.93;64.68;99309.32;1663319;85;21045;-82
2021/06/18 05:42:47;;;;;;;16.60;8.30;;;;;;;21.91;64.80;99312.06;1703807;84;21060;-81
2021/06/18 05:45:14;;;;;;;14.13;7.58;;;;;;;21.94;65.15;99310.52;1693042;84;21064;-81
2021/06/18 05:47:40;;;;;;;18.23;7.17;;;;;;;;;;1705785;84;21016;-81
2021/06/18 05:50:08;;;;;;;17.60;6.85;;;;;;;22.22;65.04;99311.25;1705610;84;21052;-82
2021/06/18 05:52:36;;;;;;;18.20;6.92;;;;;;;22.32;64.83;99300.44;1705806;84;21095;-82
2021/06/18 05:55:03;;;;;;;16.60;8.45;;;;;;;22.41;64.37;99306.39;1693601;85;21260;-82
2021/06/18 05:57:29;;;;;;;18.20;8.75;;;;;;;22.40;63.16;99307.36;1705781;84;21004;-82
2021/06/18 05:59:56;;;;;;;15.15;9.73;;;;;;;22.42;63.57;99308.56;1693351;84;21096;-82
2021/06/18 06:02:24;;;;;;;17.30;9.73;;;;;;;22.37;62.57;99307.56;1703722;84;21094;-82
2021/06/18 06:04:50;;;;;;;20.08;11.45;;;;;;;22.50;62.84;99309.34;1704303;82;21154;-81
2021/06/18 06:07:17;;;;;;;21.23;9.00;;;;;;;22.52;61.99;99304.33;1690388;83;20961;-81
2021/06/18 06:09:43;;;;;;;14.98;7.90;;;;;;;22.68;62.26;99309.38;1706046;83;21123;-80
2021/06/18 06:12:10;;;;;;;22.35;6.58;;;;;;;22.78;61.46;99305.55;1688762;83;21084;-80
2021/06/18 06:14:37;;;;;;;9.53;5.17;;;;;;;22.77;60.82;99311.34;1702208;84;21356;-80
2021/06/18 06:17:04;;;;;;;9.88;5.67;;;;;;;22.89;61.63;99316.23;1689556;85;21155;-80
2021/06/18 06:19:30;;;;;;;12.68;7.28;;;;;;;22.89;60.64;99319.38;1705449;82;21095;-80
2021/06/18 06:21:57;;;;;;;14.75;7.25;;;;;;;22.98;60.99;99317.39;1691902;83;21986;-79
2021/06/18 06:24:24;;;;;;;13.70;5.97;;;;;;;22.93;61.27;99311.56;1702316;84;21039;-80
2021/06/18 06:26:50;;;;;;;18.85;5.83;;;;;;;23.07;61.23;99311.42;1690728;83;21135;-81
2021/06/18 06:29:17;;;;;;;10.78;5.80;;;;;;;23.11;61.32;99308.91;1707604;82;21129;-80
2021/06/18 06:31:44;;;;;;;16.82;5.37;;;;;;;23.15;61.63;99311.70;1692442;84;21032;-80
2021/06/18 06:34:12;;;;;;;9.03;4.55;;;;;;;23.29;61.29;99317.80;1643502;85;21177;-80
2021/06/18 06:36:38;;;;;;;9.35;4.50;;;;;;;23.31;60.26;99318.53;1692870;83;21040;-81
2021/06/18 06:39:06;;;;;;;11.73;4.65;;;;;;;23.39;60.03;99323.63;1646241;86;21054;-81
2021/06/18 06:41:32;;;;;;;11.95;4.40;;;;;;;23.39;60.22;99325.44;1692993;83;21007;-81
2021/06/18 06:43:59;;;;;;;11.03;4.50;;;;;;;23.42;60.20;99323.90;1700794;84;21095;-81
2021/06/18 06:46:26;;;;;;;8.55;4.33;;;;;;;23.43;59.21;99321.11;1694828;83;21016;-80
2021/06/18 06:48:52;;;;;;;10.98;4.65;;;;;;;23.33;59.72;99309.98;1690517;84;20993;-80
2021/06/18 06:51:19;;;;;;;11.97;4.42;;;;;;;23.38;59.39;99309.17;1690669;83;21019;-81
2021/06/18 06:53:45;;;;;;;11.97;4.90;;;;;;;23.49;59.24;99314.50;1668552;84;21564;-80
2021/06/18 06:56:14;;;;;;;13.53;5.42;;;;;;;23.50;59.38;99321.52;1691476;83;21036;-82
2021/06/18 06:58:42;;;;;;;18.37;5.25;;;;;;;23.59;59.74;99319.47;1690238;83;21624;-81
2021/06/18 07:01:11;;;;;;;18.80;5.17;;;;;;;23.69;60.07;99314.31;1694088;83;21157;-82
2021/06/18 07:03:38;;;;;;;17.30;5.33;;;;;;;23.85;59.87;99310.04;1670999;84;21014;-81
2021/06/18 07:06:07;;;;;;;11.33;5.05;;;;;;;23.91;59.94;99307.41;1693362;83;21032;-80
2021/06/18 07:08:34;;;;;;;8.65;5.30;;;;;;;24.01;59.58;99301.28;1693232;83;21016;-81
2021/06/18 07:11:00;;;;;;;11.73;4.65;;;;;;;24.03;59.15;99307.77;1692530;84;21095;-80
2021/06/18 07:13:28;;;;;;;11.80;4.87;;;;;;;24.04;58.99;99299.34;1692722;84;21060;-80
2021/06/18 07:15:54;;;;;;;12.93;4.90;;;;;;;23.99;58.98;99295.70;1690318;84;21707;-81
2021/06/18 07:18:21;;;;;;;7.95;4.30;;;;;;;23.97;59.23;99299.83;1699040;84;21062;-81
2021/06/18 07:20:48;;;;;;;10.68;4.50;;;;;;;23.89;59.46;99291.58;1691803;84;21187;-81
2021/06/18 07:23:15;;;;;;;11.30;5.00;;;;;;;23.87;59.28;99289.53;1692014;84;21035;-81
2021/06/18 07:25:43;;;;;;;8.80;4.40;;;;;;;23.80;59.46;99289.66;1694170;83;21080;-81
2021/06/18 07:28:11;;;;;;;10.53;4.60;;;;;;;23.83;59.10;99298.69;1693100;83;21100;-80
2021/06/18 07:30:38;;;;;;;12.53;4.55;;;;;;;23.86;58.61;99299.80;1687168;83;21284;-79
2021/06/18 07:33:06;;;;;;;9.60;4.00;;;;;;;23.92;58.29;99294.50;1687599;85;21547;-81
2021/06/18 07:35:34;;;;;;;7.15;4.20;;;;;;;24.01;58.69;99282.69;1690643;85;21044;-81
2021/06/18 07:38:02;;;;;;;10.65;4.20;;;;;;;23.96;58.31;99284.84;1687769;85;21028;-81
2021/06/18 07:40:29;;;;;;;9.85;4.70;;;;;;;24.08;58.03;99280.88;1704407;83;21581;-80
2021/06/18 07:42:55;;;;;;;14.07;4.35;;;;;;;24.10;57.50;99275.80;1689483;85;21088;-81
2021/06/18 07:45:22;;;;;;;8.10;3.80;;;;;;;24.25;57.77;99271.56;1684794;83;20996;-81
2021/06/18 07:47:49;;;;;;;13.35;4.00;;;;;;;24.39;57.07;99275.30;1690105;83;21054;-81
2021/06/18 07:50:17;;;;;;;8.00;4.00;;;;;;;24.40;55.92;99280.50;1702003;84;21000;-81
2021/06/18 07:52:44;;;;;;;5.70;3.40;;;;;;;24.51;56.25;99278.82;1692119;83;21024;-80
2021/06/18 07:55:17;;;;;;;9.98;3.80;;;;;;;24.67;55.91;99270.00;1701757;84;21138;-80
2021/06/18 07:57:40;;;;;;;14.03;4.25;;;;;;;24.89;55.81;99266.90;1703804;84;21130;-80
2021/06/18 08:00:09;;;;;;;8.78;4.60;;;;;;;25.10;55.31;99262.97;1699578;83;21544;-80
2021/06/18 08:02:41;;;;;;;9.08;4.65;;;;;;;25.24;55.20;99261.86;1703415;84;21058;-81
2021/06/18 08:05:10;;;;;;;11.93;4.22;;;;;;;25.52;54.73;99255.05;1703983;83;21613;-80
2021/06/18 08:07:39;;;;;;;12.28;4.17;;;;;;;25.76;54.44;99257.44;1691662;83;21024;-82
2021/06/18 08:10:08;;;;;;;10.65;4.33;;;;;;;25.90;53.44;99253.59;1688591;83;21100;-80
2021/06/18 08:12:36;;;;;;;8.85;4.25;;;;;;;26.01;53.26;99250.88;1686435;83;21052;-81
2021/06/18 08:15:05;;;;;;;8.60;4.30;;;;;;;26.22;53.35;99245.48;1704734;84;21067;-81
2021/06/18 08:17:33;;;;;;;7.30;3.92;;;;;;;26.38;52.06;99248.97;1702471;84;21067;-82
2021/06/18 08:20:01;;;;;;;8.13;4.35;;;;;;;26.55;52.60;99250.16;1704243;83;21059;-82
2021/06/18 08:22:27;;;;;;;7.10;4.12;;;;;;;26.72;52.36;99249.52;1703371;83;21079;-82
2021/06/18 08:24:54;;;;;;;6.83;4.28;;;;;;;26.92;52.14;99250.89;1678804;84;21011;-83
2021/06/18 08:27:21;;;;;;;9.48;3.98;;;;;;;27.10;51.84;99236.36;1701083;83;21131;-82
2021/06/18 08:29:48;;;;;;;10.35;4.05;;;;;;;27.22;51.00;99228.55;1675805;84;21047;-80
2021/06/18 08:32:14;;;;;;;8.83;5.35;;;;;;;27.38;50.86;99234.68;1661484;84;21061;-81
2021/06/18 08:34:41;;;;;;;7.33;3.80;;;;;;;27.35;50.64;99224.27;1662139;86;21096;-81
2021/06/18 08:37:08;;;;;;;9.83;4.60;;;;;;;27.31;50.12;99230.88;1660282;84;21326;-81
2021/06/18 08:39:34;;;;;;;6.87;4.05;;;;;;;27.30;49.22;99231.88;1660333;84;21041;-81
2021/06/18 08:42:02;;;;;;;8.38;4.53;;;;;;;27.29;50.16;99220.84;1667490;84;21087;-83
2021/06/18 08:44:29;;;;;;;8.85;4.20;;;;;;;27.30;48.72;99221.20;1664386;84;21984;-83
2021/06/18 08:46:56;;;;;;;9.65;4.12;;;;;;;27.33;49.32;99223.57;1667662;84;21041;-80
2021/06/18 08:49:24;;;;;;;9.25;3.92;;;;;;;27.40;49.15;99219.36;1664952;84;21320;-81
2021/06/18 08:51:50;;;;;;;7.85;4.17;;;;;;;27.50;48.48;99218.84;1664490;84;21070;-82
2021/06/18 08:54:17;;;;;;;5.75;4.00;;;;;;;27.59;49.42;99221.13;1635244;86;21449;-82
2021/06/18 08:56:44;;;;;;;10.90;4.17;;;;;;;27.44;47.46;99215.42;1666402;86;21614;-82
2021/06/18 08:59:11;;;;;;;10.68;4.60;;;;;;;27.40;48.70;99216.69;1658882;84;21117;-82
2021/06/18 09:01:39;;;;;;;9.10;4.50;;;;;;;27.43;48.81;99217.72;1664672;84;21061;-82
2021/06/18 09:04:07;;;;;;;6.97;3.87;;;;;;;27.50;49.43;99213.50;1663480;86;21005;-81
2021/06/18 09:06:43;;;;;;;10.50;4.62;;;;;;;27.61;48.99;99213.81;1667303;84;21033;-83
2021/06/18 09:09:22;;;;;;;11.68;4.30;;;;;;;27.56;47.95;99212.92;1674042;85;22134;-83
2021/06/18 09:11:58;;;;;;;7.30;4.28;;;;;;;27.62;48.79;99208.01;1675814;85;21082;-83
2021/06/18 09:14:38;;;;;;;9.38;4.53;;;;;;;27.67;48.54;99202.55;1677654;85;21025;-82
2021/06/18 09:17:23;;;;;;;8.00;3.87;;;;;;;27.69;48.78;99199.74;1672975;85;21108;-81
2021/06/18 09:19:57;;;;;;;7.67;4.00;;;;;;;27.80;48.78;99193.40;1677199;85;20981;-82
2021/06/18 09:22:41;;;;;;;10.32;3.52;;;;;;;27.77;48.37;99194.51;1673319;84;21547;-81
2021/06/18 09:25:17;;;;;;;9.18;4.22;;;;;;;27.83;48.49;99191.25;1662787;85;21021;-83
2021/06/18 09:27:51;;;;;;;6.80;4.25;;;;;;;27.87;48.07;99193.14;1675475;85;21048;-81
2021/06/18 09:30:26;;;;;;;8.50;3.95;;;;;;;27.87;48.06;99191.33;1661509;85;21068;-81
2021/06/18 09:33:06;;;;;;;11.68;7.03;;;;;;;27.85;46.92;99174.58;1673262;85;21136;-82
2021/06/18 09:35:34;;;;;;;6.37;3.65;;;;;;;27.90;47.61;99184.87;1675261;84;21580;-82
2021/06/18 09:38:07;;;;;;;10.10;3.72;;;;;;;27.89;46.88;99170.66;1676873;85;21032;-81
2021/06/18 09:40:34;;;;;;;6.40;3.83;;;;;;;27.96;46.83;99173.59;1672699;85;21092;-82
2021/06/18 09:43:10;;;;;;;8.63;3.62;;;;;;;27.99;46.83;99169.27;1677931;85;21032;-81
2021/06/18 09:45:39;;;;;;;5.62;3.45;;;;;;;28.14;46.79;99168.30;1673475;85;22186;-82
2021/06/18 09:48:16;;;;;;;4.62;3.20;;;;;;;28.27;46.53;99166.59;1673338;85;21033;-82
2021/06/18 09:50:47;;;;;;;5.22;3.15;;;;;;;28.36;45.89;99165.20;1668250;85;21531;-83
2021/06/18 09:53:22;;;;;;;7.10;3.50;;;;;;;28.46;45.67;99165.14;1677775;85;21065;-81
2021/06/18 09:56:11;;;;;;;6.12;2.87;;;;;;;28.52;45.19;99159.21;1666516;85;21051;-82
2021/06/18 09:58:41;;;;;;;6.20;3.50;;;;;;;28.52;44.24;99155.20;1675591;85;21037;-82
2021/06/18 10:01:27;;;;;;;5.67;3.17;;;;;;;28.59;44.30;99162.14;1672737;85;21931;-81
2021/06/18 10:04:14;;;;;;;6.08;3.35;;;;;;;28.55;42.84;99152.71;1668399;85;21045;-83
2021/06/18 10:06:42;;;;;;;6.15;3.20;;;;;;;28.68;44.20;99157.19;1668134;85;21919;-83
2021/06/18 10:09:16;;;;;;;9.85;3.40;;;;;;;28.87;43.94;99147.31;1675279;85;21018;-81
2021/06/18 10:11:45;;;;;;;5.20;3.00;;;;;;;29.02;43.88;99143.60;1659595;85;21044;-82
2021/06/18 10:14:14;;;;;;;6.97;3.10;;;;;;;29.13;42.47;99150.91;1670477;84;21032;-81
2021/06/18 10:16:42;;;;;;;6.75;3.50;;;;;;;29.25;40.62;99146.14;1668106;85;21006;-81
2021/06/18 10:19:09;;;;;;;5.90;3.40;;;;;;;29.43;42.89;99147.43;1677012;85;22216;-81
2021/06/18 10:22:11;;;;;;;8.28;3.10;;;;;;;29.62;41.67;99134.30;1677008;85;21035;-80
2021/06/18 10:24:55;;;;;;;12.53;8.73;;;;;;;29.79;41.87;99132.58;1671983;85;21119;-81
2021/06/18 10:27:47;;;;;;;9.93;3.77;;;;;;;30.04;42.58;99124.62;1666468;85;21035;-83
2021/06/18 10:30:34;;;;;;;6.40;3.00;;;;;;;30.27;42.24;99125.69;1666178;85;21095;-81
2021/06/18 10:33:22;;;;;;;6.60;3.00;;;;;;;30.47;41.96;99123.58;1670587;85;21605;-81
2021/06/18 10:35:58;;;;;;;4.65;2.80;;;;;;;30.67;41.80;99124.61;1671104;85;21087;-82
2021/06/18 10:38:41;;;;;;;6.08;2.92;;;;;;;30.82;41.07;99114.89;1672149;84;21008;-82
2021/06/18 10:41:19;;;;;;;5.53;2.90;;;;;;;30.91;40.45;99111.72;1668535;85;21162;-82
2021/06/18 10:43:56;;;;;;;6.67;3.15;;;;;;;30.97;40.02;99115.06;1670243;85;21766;-83
2021/06/18 10:46:37;;;;;;;4.40;2.95;;;;;;;31.04;39.94;99103.99;1668795;85;21056;-82
2021/06/18 10:49:15;;;;;;;5.95;2.83;;;;;;;31.30;39.37;99101.59;1668694;85;21626;-82
2021/06/18 10:51:49;;;;;;;5.33;2.90;;;;;;;31.55;39.61;99101.55;1664126;85;21618;-83
2021/06/18 10:54:26;;;;;;;4.28;2.62;;;;;;;31.70;38.67;99102.50;1671287;85;21075;-82
2021/06/18 10:56:59;;;;;;;8.83;2.95;;;;;;;31.81;37.83;99099.41;1668207;85;22312;-81
2021/06/18 10:59:33;;;;;;;4.67;3.10;;;;;;;31.86;37.81;99100.25;1672598;85;20972;-80
2021/06/18 11:02:14;;;;;;;6.05;2.83;;;;;;;31.74;36.51;99094.94;1669323;85;21132;-81
2021/06/18 11:04:44;;;;;;;5.40;3.00;;;;;;;31.80;37.16;99087.00;1641647;85;21044;-82
2021/06/18 11:07:30;;;;;;;6.25;3.00;;;;;;;31.95;37.31;99088.42;1675036;85;21593;-82
2021/06/18 11:10:14;;;;;;;7.90;3.08;;;;;;;31.82;37.21;99091.69;1640058;86;21066;-83
2021/06/18 11:13:00;;;;;;;4.45;2.70;;;;;;;31.76;37.48;99091.05;1668912;85;21124;-82
2021/06/18 11:15:35;;;;;;;6.47;2.50;;;;;;;31.99;37.28;99080.84;1667932;85;21442;-83
2021/06/18 11:18:18;;;;;;;5.12;2.58;;;;;;;32.06;36.84;99080.00;1671024;85;21120;-83
2021/06/18 11:20:52;;;;;;;7.10;2.55;;;;;;;32.15;36.07;99070.02;1672255;85;20976;-82
2021/06/18 11:23:23;;;;;;;3.45;2.42;;;;;;;32.04;32.97;99083.38;1677616;85;21067;-83
2021/06/18 11:26:08;;;;;;;6.13;3.67;;;;;;;32.03;34.15;99069.61;1672791;85;20993;-82
2021/06/18 11:28:43;;;;;;;6.95;4.28;;;;;;;32.03;34.32;99070.09;1672801;84;21070;-81
2021/06/18 11:31:17;;;;;;;6.87;2.85;;;;;;;31.98;34.04;99069.26;1681902;85;21084;-82
2021/06/18 11:33:47;;;;;;;5.37;2.70;;;;;;;32.05;32.92;99068.06;1686682;85;21532;-80
2021/06/18 11:36:26;;;;;;;8.35;2.47;;;;;;;32.28;34.64;99064.89;1688221;85;21063;-82
2021/06/18 11:38:58;;;;;;;3.17;2.40;;;;;;;32.45;34.38;99053.52;1691686;85;21032;-84
2021/06/18 11:41:30;;;;;;;6.33;2.85;;;;;;;32.44;32.70;99062.58;1689056;85;21020;-83
2021/06/18 11:44:00;;;;;;;3.70;2.43;;;;;;;32.42;32.85;99054.38;1690018;85;22166;-82
2021/06/18 11:46:30;;;;;;;9.60;3.12;;;;;;;32.52;34.10;99056.30;1703948;83;21086;-83
2021/06/18 11:49:09;;;;;;;5.28;2.80;;;;;;;32.58;33.86;99050.23;1693058;83;21048;-83